Decoded Metar for KNKT (CHERRY POINT in NC, USA) (IATA:NKT) | Meteo·Mobile Aviation Weather
aviador You're here:

KNKT Decoded Metar

CHERRY POINT in NC, USA
Report Time2018-11-16 06:54:00
UTC Time2018-11-16 07:10:39
Flight Rules mvfr MVFR
Wind270° at 14 Gusting to 22 kt
W.Decomp.*RWY 32: 10.6 kt HW 9.2 kt LCW
RWY 23: 9.2 kt HW 10.6 kt RCW
W.Rank270° ranks 22
Current wind is above 270° avg. (8.8)
Visibility9999 m
Phenomena:N/A
Clouds:Overcast 017 Hf
Expected CloudBase > 1,200 ft AGL from Temp-Dew spread
Ceiling1,700 ft
Temp08°C (ISA -7)
Dew Point05°C (82% RH)
AAT1.9°C
QNH1013 hPa
Density Alt-686 ft
Elevation30 ft
Report Wrong Elevation
Raw Report
KNKT 160654Z 27014G22KT 10SM OVC017 08/05 A2992 RMK AO2 PK WND
27028/0611 SLP127 T00780050=

Extra information for KNKT:More info

Metar Taf Metar & Taf Last 4 Metars F.Rules Stats Wind Profile Meteogram Temp Stats Airport Information Weather charts Add Link Nearby VenuesMetar ALERT Operation Metar Decoded Social comments

AIRNAV info for KNKT